sensor_id;sensor_type;location;lat;lon;timestamp;temperature;humidity
51765;DHT22;37835;53.256;6.456;2022-07-29T00:02:13;14.60;99.90
51765;DHT22;37835;53.256;6.456;2022-07-29T00:04:39;14.60;99.90
51765;DHT22;37835;53.256;6.456;2022-07-29T00:07:04;14.60;99.90
51765;DHT22;37835;53.256;6.456;2022-07-29T00:09:31;14.60;99.90
51765;DHT22;37835;53.256;6.456;2022-07-29T00:11:59;14.60;99.90
51765;DHT22;37835;53.256;6.456;2022-07-29T00:14:25;14.70;99.90
51765;DHT22;37835;53.256;6.456;2022-07-29T00:16:51;14.70;99.90
51765;DHT22;37835;53.256;6.456;2022-07-29T00:19:16;14.70;99.90
51765;DHT22;37835;53.256;6.456;2022-07-29T00:21:42;14.50;99.90
51765;DHT22;37835;53.256;6.456;2022-07-29T00:24:07;14.70;99.90
51765;DHT22;37835;53.256;6.456;2022-07-29T00:26:33;14.50;99.90
51765;DHT22;37835;53.256;6.456;2022-07-29T00:29:00;14.50;99.90
51765;DHT22;37835;53.256;6.456;2022-07-29T00:31:26;14.40;99.90
51765;DHT22;37835;53.256;6.456;2022-07-29T00:33:51;14.50;99.90
51765;DHT22;37835;53.256;6.456;2022-07-29T00:36:17;14.60;99.90
51765;DHT22;37835;53.256;6.456;2022-07-29T00:38:42;14.70;99.90
51765;DHT22;37835;53.256;6.456;2022-07-29T00:41:11;14.60;99.90
51765;DHT22;37835;53.256;6.456;2022-07-29T00:43:36;14.70;99.90
51765;DHT22;37835;53.256;6.456;2022-07-29T00:46:02;14.50;99.90
51765;DHT22;37835;53.256;6.456;2022-07-29T00:48:28;14.70;99.90
51765;DHT22;37835;53.256;6.456;2022-07-29T00:50:55;14.70;99.90
51765;DHT22;37835;53.256;6.456;2022-07-29T00:53:23;14.70;99.90
51765;DHT22;37835;53.256;6.456;2022-07-29T00:55:49;14.90;99.90
51765;DHT22;37835;53.256;6.456;2022-07-29T00:58:15;14.70;99.90
51765;DHT22;37835;53.256;6.456;2022-07-29T01:00:41;14.70;99.90
51765;DHT22;37835;53.256;6.456;2022-07-29T01:03:07;14.90;99.90
51765;DHT22;37835;53.256;6.456;2022-07-29T01:05:34;14.80;99.90
51765;DHT22;37835;53.256;6.456;2022-07-29T01:08:00;15.00;99.90
51765;DHT22;37835;53.256;6.456;2022-07-29T01:10:27;14.90;99.90
51765;DHT22;37835;53.256;6.456;2022-07-29T01:12:57;15.00;99.90
51765;DHT22;37835;53.256;6.456;2022-07-29T01:15:24;14.80;99.90
51765;DHT22;37835;53.256;6.456;2022-07-29T01:18:04;14.80;99.90
51765;DHT22;37835;53.256;6.456;2022-07-29T01:31:11;15.00;99.90
51765;DHT22;37835;53.256;6.456;2022-07-29T01:33:41;14.90;99.90
51765;DHT22;37835;53.256;6.456;2022-07-29T01:36:19;14.90;99.90
51765;DHT22;37835;53.256;6.456;2022-07-29T01:38:54;15.10;99.90
51765;DHT22;37835;53.256;6.456;2022-07-29T01:41:24;14.90;99.90
51765;DHT22;37835;53.256;6.456;2022-07-29T01:43:57;15.10;99.90
51765;DHT22;37835;53.256;6.456;2022-07-29T01:46:38;15.00;99.90
51765;DHT22;37835;53.256;6.456;2022-07-29T01:49:14;14.70;99.90
51765;DHT22;37835;53.256;6.456;2022-07-29T01:51:47;15.20;99.90
51765;DHT22;37835;53.256;6.456;2022-07-29T01:54:20;15.10;99.90
51765;DHT22;37835;53.256;6.456;2022-07-29T01:59:16;15.10;99.90
51765;DHT22;37835;53.256;6.456;2022-07-29T02:01:43;15.30;99.90
51765;DHT22;37835;53.256;6.456;2022-07-29T02:09:07;15.00;99.90
51765;DHT22;37835;53.256;6.456;2022-07-29T02:11:35;15.00;99.90
51765;DHT22;37835;53.256;6.456;2022-07-29T02:14:04;14.60;99.90
51765;DHT22;37835;53.256;6.456;2022-07-29T02:16:32;15.00;99.90
51765;DHT22;37835;53.256;6.456;2022-07-29T02:19:01;15.10;99.90
51765;DHT22;37835;53.256;6.456;2022-07-29T02:21:27;15.10;99.90
51765;DHT22;37835;53.256;6.456;2022-07-29T02:23:56;15.20;99.90
51765;DHT22;37835;53.256;6.456;2022-07-29T02:26:26;14.90;99.90
51765;DHT22;37835;53.256;6.456;2022-07-29T02:28:54;14.90;99.90
51765;DHT22;37835;53.256;6.456;2022-07-29T02:31:24;14.90;99.90
51765;DHT22;37835;53.256;6.456;2022-07-29T02:33:52;14.80;99.90
51765;DHT22;37835;53.256;6.456;2022-07-29T02:36:21;14.90;99.90
51765;DHT22;37835;53.256;6.456;2022-07-29T02:38:48;15.00;99.90
51765;DHT22;37835;53.256;6.456;2022-07-29T02:41:23;14.90;99.90
51765;DHT22;37835;53.256;6.456;2022-07-29T02:43:52;14.90;99.90
51765;DHT22;37835;53.256;6.456;2022-07-29T02:46:25;15.20;99.90
51765;DHT22;37835;53.256;6.456;2022-07-29T02:51:32;15.00;99.90
51765;DHT22;37835;53.256;6.456;2022-07-29T02:54:01;15.20;99.90
51765;DHT22;37835;53.256;6.456;2022-07-29T02:56:33;15.00;99.90
51765;DHT22;37835;53.256;6.456;2022-07-29T02:59:03;15.00;99.90
51765;DHT22;37835;53.256;6.456;2022-07-29T03:01:31;14.90;99.90
51765;DHT22;37835;53.256;6.456;2022-07-29T03:04:01;14.90;99.90
51765;DHT22;37835;53.256;6.456;2022-07-29T03:06:29;14.90;99.90
51765;DHT22;37835;53.256;6.456;2022-07-29T03:08:56;15.10;99.90
51765;DHT22;37835;53.256;6.456;2022-07-29T03:11:23;15.00;99.90
51765;DHT22;37835;53.256;6.456;2022-07-29T03:13:50;14.90;99.90
51765;DHT22;37835;53.256;6.456;2022-07-29T03:16:16;15.00;99.90
51765;DHT22;37835;53.256;6.456;2022-07-29T03:18:43;14.90;99.90
51765;DHT22;37835;53.256;6.456;2022-07-29T03:21:09;15.00;99.90
51765;DHT22;37835;53.256;6.456;2022-07-29T03:23:34;14.90;99.90
51765;DHT22;37835;53.256;6.456;2022-07-29T03:26:00;15.20;99.90
51765;DHT22;37835;53.256;6.456;2022-07-29T03:28:26;14.90;99.90
51765;DHT22;37835;53.256;6.456;2022-07-29T03:30:53;14.90;99.90
51765;DHT22;37835;53.256;6.456;2022-07-29T03:33:19;15.00;99.90
51765;DHT22;37835;53.256;6.456;2022-07-29T03:35:44;15.10;99.90
51765;DHT22;37835;53.256;6.456;2022-07-29T03:38:10;14.80;99.90
51765;DHT22;37835;53.256;6.456;2022-07-29T03:43:08;14.90;99.90
51765;DHT22;37835;53.256;6.456;2022-07-29T03:45:35;15.10;99.90
51765;DHT22;37835;53.256;6.456;2022-07-29T03:48:10;15.00;99.90
51765;DHT22;37835;53.256;6.456;2022-07-29T03:50:37;14.80;99.90
51765;DHT22;37835;53.256;6.456;2022-07-29T03:53:03;14.80;99.90
51765;DHT22;37835;53.256;6.456;2022-07-29T03:55:33;15.10;99.90
51765;DHT22;37835;53.256;6.456;2022-07-29T03:58:02;15.00;99.90
51765;DHT22;37835;53.256;6.456;2022-07-29T04:00:28;15.10;99.90
51765;DHT22;37835;53.256;6.456;2022-07-29T04:02:56;14.90;99.90
51765;DHT22;37835;53.256;6.456;2022-07-29T04:05:22;14.80;99.90
51765;DHT22;37835;53.256;6.456;2022-07-29T04:07:48;15.60;99.90
51765;DHT22;37835;53.256;6.456;2022-07-29T04:10:14;14.90;99.90
51765;DHT22;37835;53.256;6.456;2022-07-29T04:12:41;14.80;99.90
51765;DHT22;37835;53.256;6.456;2022-07-29T04:15:07;15.10;99.90
51765;DHT22;37835;53.256;6.456;2022-07-29T04:17:33;14.90;99.90
51765;DHT22;37835;53.256;6.456;2022-07-29T04:19:58;15.80;99.90
51765;DHT22;37835;53.256;6.456;2022-07-29T04:22:24;15.10;99.90
51765;DHT22;37835;53.256;6.456;2022-07-29T04:24:50;14.90;99.90
51765;DHT22;37835;53.256;6.456;2022-07-29T04:27:15;14.90;99.90
51765;DHT22;37835;53.256;6.456;2022-07-29T04:29:41;14.90;99.90
51765;DHT22;37835;53.256;6.456;2022-07-29T04:32:06;15.00;99.90
51765;DHT22;37835;53.256;6.456;2022-07-29T04:34:33;15.10;99.90
51765;DHT22;37835;53.256;6.456;2022-07-29T04:36:59;14.90;99.90
51765;DHT22;37835;53.256;6.456;2022-07-29T04:39:25;15.00;99.90
51765;DHT22;37835;53.256;6.456;2022-07-29T04:41:51;14.90;99.90
51765;DHT22;37835;53.256;6.456;2022-07-29T04:44:16;15.10;99.90
51765;DHT22;37835;53.256;6.456;2022-07-29T04:46:42;15.00;99.90
51765;DHT22;37835;53.256;6.456;2022-07-29T04:49:08;15.10;99.90
51765;DHT22;37835;53.256;6.456;2022-07-29T04:51:34;15.00;99.90
51765;DHT22;37835;53.256;6.456;2022-07-29T04:54:00;15.10;99.90
51765;DHT22;37835;53.256;6.456;2022-07-29T04:56:26;15.20;99.90
51765;DHT22;37835;53.256;6.456;2022-07-29T04:58:52;15.20;99.90
51765;DHT22;37835;53.256;6.456;2022-07-29T05:01:18;15.50;99.90
51765;DHT22;37835;53.256;6.456;2022-07-29T05:03:44;15.30;99.90
51765;DHT22;37835;53.256;6.456;2022-07-29T05:06:10;15.10;99.90
51765;DHT22;37835;53.256;6.456;2022-07-29T05:08:36;15.70;99.90
51765;DHT22;37835;53.256;6.456;2022-07-29T05:11:02;15.30;99.90
51765;DHT22;37835;53.256;6.456;2022-07-29T05:13:27;15.30;99.90
51765;DHT22;37835;53.256;6.456;2022-07-29T05:15:53;15.30;99.90
51765;DHT22;37835;53.256;6.456;2022-07-29T05:18:19;15.30;99.90
51765;DHT22;37835;53.256;6.456;2022-07-29T05:20:44;15.50;99.90
51765;DHT22;37835;53.256;6.456;2022-07-29T05:23:10;15.40;99.90
51765;DHT22;37835;53.256;6.456;2022-07-29T05:25:38;15.30;99.90
51765;DHT22;37835;53.256;6.456;2022-07-29T05:28:04;16.20;99.90
51765;DHT22;37835;53.256;6.456;2022-07-29T05:30:30;15.40;99.90
51765;DHT22;37835;53.256;6.456;2022-07-29T05:32:55;15.50;99.90
51765;DHT22;37835;53.256;6.456;2022-07-29T05:35:21;15.50;99.90
51765;DHT22;37835;53.256;6.456;2022-07-29T05:37:47;15.60;99.90
51765;DHT22;37835;53.256;6.456;2022-07-29T05:40:12;15.50;99.90
51765;DHT22;37835;53.256;6.456;2022-07-29T05:42:38;15.60;99.90
51765;DHT22;37835;53.256;6.456;2022-07-29T05:45:04;15.60;99.90
51765;DHT22;37835;53.256;6.456;2022-07-29T05:47:30;15.60;99.90
51765;DHT22;37835;53.256;6.456;2022-07-29T05:49:56;15.70;99.90
51765;DHT22;37835;53.256;6.456;2022-07-29T05:52:22;15.70;99.90
51765;DHT22;37835;53.256;6.456;2022-07-29T05:54:47;15.60;99.90
51765;DHT22;37835;53.256;6.456;2022-07-29T05:57:21;15.80;99.90
51765;DHT22;37835;53.256;6.456;2022-07-29T05:59:47;15.80;99.90
51765;DHT22;37835;53.256;6.456;2022-07-29T06:02:13;15.90;99.90
51765;DHT22;37835;53.256;6.456;2022-07-29T06:04:39;15.80;99.90
51765;DHT22;37835;53.256;6.456;2022-07-29T06:07:05;17.30;99.90
51765;DHT22;37835;53.256;6.456;2022-07-29T06:09:31;16.20;99.90
51765;DHT22;37835;53.256;6.456;2022-07-29T06:11:56;16.00;99.90
51765;DHT22;37835;53.256;6.456;2022-07-29T06:14:23;16.10;99.90
51765;DHT22;37835;53.256;6.456;2022-07-29T06:16:49;16.40;99.90
51765;DHT22;37835;53.256;6.456;2022-07-29T06:19:14;16.10;99.90
51765;DHT22;37835;53.256;6.456;2022-07-29T06:21:46;16.10;99.90
51765;DHT22;37835;53.256;6.456;2022-07-29T06:24:13;16.30;99.90
51765;DHT22;37835;53.256;6.456;2022-07-29T06:26:40;16.10;99.90
51765;DHT22;37835;53.256;6.456;2022-07-29T06:29:06;16.20;99.90
51765;DHT22;37835;53.256;6.456;2022-07-29T06:31:32;16.40;99.90
51765;DHT22;37835;53.256;6.456;2022-07-29T06:33:58;16.30;99.90
51765;DHT22;37835;53.256;6.456;2022-07-29T06:36:23;16.40;99.90
51765;DHT22;37835;53.256;6.456;2022-07-29T06:38:49;16.40;99.90
51765;DHT22;37835;53.256;6.456;2022-07-29T06:41:14;16.40;99.90
51765;DHT22;37835;53.256;6.456;2022-07-29T06:43:42;16.60;99.90
51765;DHT22;37835;53.256;6.456;2022-07-29T06:46:10;16.70;99.90
51765;DHT22;37835;53.256;6.456;2022-07-29T06:48:36;17.10;99.90
51765;DHT22;37835;53.256;6.456;2022-07-29T06:51:04;16.80;99.90
51765;DHT22;37835;53.256;6.456;2022-07-29T06:53:30;16.80;99.90
51765;DHT22;37835;53.256;6.456;2022-07-29T06:55:56;16.80;99.90
51765;DHT22;37835;53.256;6.456;2022-07-29T06:58:21;16.90;99.90
51765;DHT22;37835;53.256;6.456;2022-07-29T07:00:47;17.00;99.90
51765;DHT22;37835;53.256;6.456;2022-07-29T07:03:14;16.90;99.90
51765;DHT22;37835;53.256;6.456;2022-07-29T07:05:40;17.30;99.90
51765;DHT22;37835;53.256;6.456;2022-07-29T07:10:33;17.00;99.90
51765;DHT22;37835;53.256;6.456;2022-07-29T07:12:59;17.10;99.90
51765;DHT22;37835;53.256;6.456;2022-07-29T07:15:26;17.30;99.90
51765;DHT22;37835;53.256;6.456;2022-07-29T07:17:52;17.30;99.90
51765;DHT22;37835;53.256;6.456;2022-07-29T07:20:18;17.20;99.90
51765;DHT22;37835;53.256;6.456;2022-07-29T07:22:43;17.20;99.90
51765;DHT22;37835;53.256;6.456;2022-07-29T07:25:11;17.20;99.90
51765;DHT22;37835;53.256;6.456;2022-07-29T07:27:37;17.20;99.90
51765;DHT22;37835;53.256;6.456;2022-07-29T07:30:04;17.30;99.90
51765;DHT22;37835;53.256;6.456;2022-07-29T07:32:31;17.20;99.90
51765;DHT22;37835;53.256;6.456;2022-07-29T07:34:57;17.20;99.90
51765;DHT22;37835;53.256;6.456;2022-07-29T07:37:24;17.40;99.90
51765;DHT22;37835;53.256;6.456;2022-07-29T07:39:51;17.40;99.90
51765;DHT22;37835;53.256;6.456;2022-07-29T07:42:17;17.30;99.90
51765;DHT22;37835;53.256;6.456;2022-07-29T07:44:43;17.50;99.90
51765;DHT22;37835;53.256;6.456;2022-07-29T07:47:08;16.60;99.90
51765;DHT22;37835;53.256;6.456;2022-07-29T07:49:34;17.50;99.90
51765;DHT22;37835;53.256;6.456;2022-07-29T07:52:00;17.50;99.90
51765;DHT22;37835;53.256;6.456;2022-07-29T07:54:25;17.50;99.90
51765;DHT22;37835;53.256;6.456;2022-07-29T07:56:51;18.10;99.90
51765;DHT22;37835;53.256;6.456;2022-07-29T07:59:17;17.60;99.90
51765;DHT22;37835;53.256;6.456;2022-07-29T08:01:42;17.70;99.90
51765;DHT22;37835;53.256;6.456;2022-07-29T08:04:08;17.90;99.90
51765;DHT22;37835;53.256;6.456;2022-07-29T08:06:34;17.90;99.90
51765;DHT22;37835;53.256;6.456;2022-07-29T08:09:02;17.70;99.90
51765;DHT22;37835;53.256;6.456;2022-07-29T08:11:28;17.80;99.90
51765;DHT22;37835;53.256;6.456;2022-07-29T08:13:55;18.00;99.90
51765;DHT22;37835;53.256;6.456;2022-07-29T08:16:21;17.90;99.90
51765;DHT22;37835;53.256;6.456;2022-07-29T08:18:47;17.90;99.90
51765;DHT22;37835;53.256;6.456;2022-07-29T08:21:14;18.00;99.90
51765;DHT22;37835;53.256;6.456;2022-07-29T08:23:40;18.00;99.90
51765;DHT22;37835;53.256;6.456;2022-07-29T08:26:12;17.90;99.90
51765;DHT22;37835;53.256;6.456;2022-07-29T08:28:39;18.00;99.90
51765;DHT22;37835;53.256;6.456;2022-07-29T08:31:06;18.00;99.90
51765;DHT22;37835;53.256;6.456;2022-07-29T08:33:32;18.00;99.90
51765;DHT22;37835;53.256;6.456;2022-07-29T08:35:58;18.10;99.90
51765;DHT22;37835;53.256;6.456;2022-07-29T08:38:24;18.40;99.90
51765;DHT22;37835;53.256;6.456;2022-07-29T08:40:52;18.40;99.90
51765;DHT22;37835;53.256;6.456;2022-07-29T08:43:18;18.20;99.90
51765;DHT22;37835;53.256;6.456;2022-07-29T08:45:49;18.20;99.90
51765;DHT22;37835;53.256;6.456;2022-07-29T08:50:44;18.20;99.90
51765;DHT22;37835;53.256;6.456;2022-07-29T08:53:16;18.20;99.90
51765;DHT22;37835;53.256;6.456;2022-07-29T08:55:46;18.30;99.90
51765;DHT22;37835;53.256;6.456;2022-07-29T08:58:14;18.30;99.90
51765;DHT22;37835;53.256;6.456;2022-07-29T09:00:50;18.30;99.90
51765;DHT22;37835;53.256;6.456;2022-07-29T09:03:18;18.30;99.90
51765;DHT22;37835;53.256;6.456;2022-07-29T09:05:45;18.40;99.90
51765;DHT22;37835;53.256;6.456;2022-07-29T09:08:12;18.40;99.90
51765;DHT22;37835;53.256;6.456;2022-07-29T09:10:39;18.50;99.90
51765;DHT22;37835;53.256;6.456;2022-07-29T09:13:05;18.50;99.90
51765;DHT22;37835;53.256;6.456;2022-07-29T09:15:30;18.60;99.90
51765;DHT22;37835;53.256;6.456;2022-07-29T09:17:56;18.60;99.90
51765;DHT22;37835;53.256;6.456;2022-07-29T09:20:24;18.60;99.90
51765;DHT22;37835;53.256;6.456;2022-07-29T09:22:51;18.60;99.90
51765;DHT22;37835;53.256;6.456;2022-07-29T09:25:38;18.70;99.90
51765;DHT22;37835;53.256;6.456;2022-07-29T09:28:10;18.70;99.90
51765;DHT22;37835;53.256;6.456;2022-07-29T09:30:56;18.80;99.90
51765;DHT22;37835;53.256;6.456;2022-07-29T09:33:30;18.80;99.90
51765;DHT22;37835;53.256;6.456;2022-07-29T09:36:08;18.90;99.90
51765;DHT22;37835;53.256;6.456;2022-07-29T09:38:34;19.00;99.90
51765;DHT22;37835;53.256;6.456;2022-07-29T09:41:02;19.00;99.90
51765;DHT22;37835;53.256;6.456;2022-07-29T09:43:28;19.10;99.90
51765;DHT22;37835;53.256;6.456;2022-07-29T09:45:54;19.10;99.90
51765;DHT22;37835;53.256;6.456;2022-07-29T09:48:22;19.20;99.90
51765;DHT22;37835;53.256;6.456;2022-07-29T09:50:49;19.20;99.90
51765;DHT22;37835;53.256;6.456;2022-07-29T09:53:36;19.30;99.90
51765;DHT22;37835;53.256;6.456;2022-07-29T09:56:04;19.30;99.90
51765;DHT22;37835;53.256;6.456;2022-07-29T09:58:31;19.30;99.90
51765;DHT22;37835;53.256;6.456;2022-07-29T10:00:59;19.40;99.90
51765;DHT22;37835;53.256;6.456;2022-07-29T10:03:25;19.40;99.90
51765;DHT22;37835;53.256;6.456;2022-07-29T10:06:10;19.50;99.90
51765;DHT22;37835;53.256;6.456;2022-07-29T10:08:37;19.50;99.90
51765;DHT22;37835;53.256;6.456;2022-07-29T10:11:14;19.50;99.90
51765;DHT22;37835;53.256;6.456;2022-07-29T10:13:42;19.60;99.90
51765;DHT22;37835;53.256;6.456;2022-07-29T10:16:08;19.60;99.90
51765;DHT22;37835;53.256;6.456;2022-07-29T10:18:34;19.60;99.90
51765;DHT22;37835;53.256;6.456;2022-07-29T10:21:00;19.60;99.90
51765;DHT22;37835;53.256;6.456;2022-07-29T10:23:27;19.60;99.90
51765;DHT22;37835;53.256;6.456;2022-07-29T10:25:53;19.70;99.90
51765;DHT22;37835;53.256;6.456;2022-07-29T10:28:19;19.60;99.90
51765;DHT22;37835;53.256;6.456;2022-07-29T10:30:46;19.60;99.90
51765;DHT22;37835;53.256;6.456;2022-07-29T10:39:31;19.70;99.90
51765;DHT22;37835;53.256;6.456;2022-07-29T10:44:35;19.70;99.90
51765;DHT22;37835;53.256;6.456;2022-07-29T10:47:04;19.80;99.90
51765;DHT22;37835;53.256;6.456;2022-07-29T10:49:30;19.80;99.90
51765;DHT22;37835;53.256;6.456;2022-07-29T10:54:42;19.90;99.90
51765;DHT22;37835;53.256;6.456;2022-07-29T11:05:11;20.00;99.90
51765;DHT22;37835;53.256;6.456;2022-07-29T11:07:38;20.10;99.90
51765;DHT22;37835;53.256;6.456;2022-07-29T11:15:19;20.10;99.90
51765;DHT22;37835;53.256;6.456;2022-07-29T11:22:56;20.20;99.90
51765;DHT22;37835;53.256;6.456;2022-07-29T11:25:21;20.20;99.90
51765;DHT22;37835;53.256;6.456;2022-07-29T11:27:47;20.20;99.90
51765;DHT22;37835;53.256;6.456;2022-07-29T11:30:13;20.30;99.90
51765;DHT22;37835;53.256;6.456;2022-07-29T11:32:41;20.30;99.90
51765;DHT22;37835;53.256;6.456;2022-07-29T11:37:38;20.30;99.90
51765;DHT22;37835;53.256;6.456;2022-07-29T11:45:02;20.30;99.90
51765;DHT22;37835;53.256;6.456;2022-07-29T11:47:31;20.20;99.90
51765;DHT22;37835;53.256;6.456;2022-07-29T11:49:58;20.40;99.90
51765;DHT22;37835;53.256;6.456;2022-07-29T11:52:33;20.40;99.90
51765;DHT22;37835;53.256;6.456;2022-07-29T11:55:02;20.50;99.90
51765;DHT22;37835;53.256;6.456;2022-07-29T11:57:28;20.50;99.90
51765;DHT22;37835;53.256;6.456;2022-07-29T11:59:55;20.50;99.90
51765;DHT22;37835;53.256;6.456;2022-07-29T12:02:23;20.60;99.90
51765;DHT22;37835;53.256;6.456;2022-07-29T12:04:56;20.60;99.90
51765;DHT22;37835;53.256;6.456;2022-07-29T12:07:30;20.70;99.90
51765;DHT22;37835;53.256;6.456;2022-07-29T12:09:56;20.80;99.90
51765;DHT22;37835;53.256;6.456;2022-07-29T12:12:22;20.80;99.90
51765;DHT22;37835;53.256;6.456;2022-07-29T12:14:48;20.90;99.90
51765;DHT22;37835;53.256;6.456;2022-07-29T12:17:33;21.00;99.90
51765;DHT22;37835;53.256;6.456;2022-07-29T12:20:01;21.10;99.90
51765;DHT22;37835;53.256;6.456;2022-07-29T12:22:37;21.20;99.90
51765;DHT22;37835;53.256;6.456;2022-07-29T12:25:10;21.40;99.90
51765;DHT22;37835;53.256;6.456;2022-07-29T12:27:37;21.60;99.90
51765;DHT22;37835;53.256;6.456;2022-07-29T12:30:08;21.80;99.90
51765;DHT22;37835;53.256;6.456;2022-07-29T12:32:36;21.90;99.90
51765;DHT22;37835;53.256;6.456;2022-07-29T12:35:05;22.10;99.90
51765;DHT22;37835;53.256;6.456;2022-07-29T12:37:33;22.20;99.90
51765;DHT22;37835;53.256;6.456;2022-07-29T12:39:59;22.30;99.90
51765;DHT22;37835;53.256;6.456;2022-07-29T12:42:25;22.40;99.90
51765;DHT22;37835;53.256;6.456;2022-07-29T12:44:51;22.40;99.90
51765;DHT22;37835;53.256;6.456;2022-07-29T12:47:18;22.50;99.90
51765;DHT22;37835;53.256;6.456;2022-07-29T12:52:31;22.70;99.90
51765;DHT22;37835;53.256;6.456;2022-07-29T12:54:57;23.00;99.90
51765;DHT22;37835;53.256;6.456;2022-07-29T12:57:23;23.10;99.90
51765;DHT22;37835;53.256;6.456;2022-07-29T13:00:11;23.20;99.90
51765;DHT22;37835;53.256;6.456;2022-07-29T13:02:38;23.30;99.90
51765;DHT22;37835;53.256;6.456;2022-07-29T13:05:06;23.40;99.90
51765;DHT22;37835;53.256;6.456;2022-07-29T13:07:32;23.50;99.90
51765;DHT22;37835;53.256;6.456;2022-07-29T13:10:35;23.60;99.90
51765;DHT22;37835;53.256;6.456;2022-07-29T13:15:39;23.90;99.90
51765;DHT22;37835;53.256;6.456;2022-07-29T13:18:29;24.10;99.90
51765;DHT22;37835;53.256;6.456;2022-07-29T13:20:55;24.20;99.90
51765;DHT22;37835;53.256;6.456;2022-07-29T13:23:21;24.30;99.90
51765;DHT22;37835;53.256;6.456;2022-07-29T13:25:47;24.40;99.90
51765;DHT22;37835;53.256;6.456;2022-07-29T13:28:13;24.40;99.90
51765;DHT22;37835;53.256;6.456;2022-07-29T13:30:40;24.50;99.90
51765;DHT22;37835;53.256;6.456;2022-07-29T13:33:06;24.50;99.90
51765;DHT22;37835;53.256;6.456;2022-07-29T13:35:32;24.70;99.90
51765;DHT22;37835;53.256;6.456;2022-07-29T13:37:57;24.80;99.90
51765;DHT22;37835;53.256;6.456;2022-07-29T13:40:23;24.90;99.90
51765;DHT22;37835;53.256;6.456;2022-07-29T13:42:49;24.90;99.90
51765;DHT22;37835;53.256;6.456;2022-07-29T13:45:14;25.00;99.90
51765;DHT22;37835;53.256;6.456;2022-07-29T13:47:40;25.10;99.90
51765;DHT22;37835;53.256;6.456;2022-07-29T13:50:07;25.20;99.90
51765;DHT22;37835;53.256;6.456;2022-07-29T13:52:35;25.20;99.90
51765;DHT22;37835;53.256;6.456;2022-07-29T13:55:02;25.30;99.90
51765;DHT22;37835;53.256;6.456;2022-07-29T13:57:28;25.30;99.90
51765;DHT22;37835;53.256;6.456;2022-07-29T13:59:53;25.40;99.90
51765;DHT22;37835;53.256;6.456;2022-07-29T14:02:19;25.40;99.90
51765;DHT22;37835;53.256;6.456;2022-07-29T14:04:45;25.50;99.90
51765;DHT22;37835;53.256;6.456;2022-07-29T14:07:10;25.50;99.90
51765;DHT22;37835;53.256;6.456;2022-07-29T14:09:36;25.50;99.90
51765;DHT22;37835;53.256;6.456;2022-07-29T14:12:02;25.60;99.90
51765;DHT22;37835;53.256;6.456;2022-07-29T14:14:28;25.70;99.90
51765;DHT22;37835;53.256;6.456;2022-07-29T14:16:54;25.70;99.90
51765;DHT22;37835;53.256;6.456;2022-07-29T14:19:20;25.70;99.90
51765;DHT22;37835;53.256;6.456;2022-07-29T14:21:46;25.80;99.90
51765;DHT22;37835;53.256;6.456;2022-07-29T14:24:11;25.70;99.90
51765;DHT22;37835;53.256;6.456;2022-07-29T14:26:37;25.90;99.90
51765;DHT22;37835;53.256;6.456;2022-07-29T14:29:02;26.00;99.90
51765;DHT22;37835;53.256;6.456;2022-07-29T14:31:28;26.10;99.90
51765;DHT22;37835;53.256;6.456;2022-07-29T14:33:54;26.10;99.90
51765;DHT22;37835;53.256;6.456;2022-07-29T14:36:19;26.20;99.90
51765;DHT22;37835;53.256;6.456;2022-07-29T14:38:45;26.20;99.90
51765;DHT22;37835;53.256;6.456;2022-07-29T14:41:10;26.30;99.90
51765;DHT22;37835;53.256;6.456;2022-07-29T14:43:36;26.30;99.90
51765;DHT22;37835;53.256;6.456;2022-07-29T14:46:02;26.50;99.90
51765;DHT22;37835;53.256;6.456;2022-07-29T14:48:28;26.50;99.90
51765;DHT22;37835;53.256;6.456;2022-07-29T14:50:53;26.50;99.90
51765;DHT22;37835;53.256;6.456;2022-07-29T14:53:21;26.60;99.90
51765;DHT22;37835;53.256;6.456;2022-07-29T14:55:47;26.60;99.90
51765;DHT22;37835;53.256;6.456;2022-07-29T14:58:12;26.70;99.90
51765;DHT22;37835;53.256;6.456;2022-07-29T15:00:38;26.70;99.90
51765;DHT22;37835;53.256;6.456;2022-07-29T15:03:04;26.70;99.90
51765;DHT22;37835;53.256;6.456;2022-07-29T15:05:31;26.70;99.90
51765;DHT22;37835;53.256;6.456;2022-07-29T15:07:57;26.70;99.90
51765;DHT22;37835;53.256;6.456;2022-07-29T15:10:24;26.70;99.90
51765;DHT22;37835;53.256;6.456;2022-07-29T15:12:51;26.60;99.90
51765;DHT22;37835;53.256;6.456;2022-07-29T15:15:17;26.50;99.90
51765;DHT22;37835;53.256;6.456;2022-07-29T15:17:42;26.50;99.90
51765;DHT22;37835;53.256;6.456;2022-07-29T15:20:08;26.40;99.90
51765;DHT22;37835;53.256;6.456;2022-07-29T15:22:34;26.30;99.90
51765;DHT22;37835;53.256;6.456;2022-07-29T15:25:00;26.20;99.90
51765;DHT22;37835;53.256;6.456;2022-07-29T15:27:25;26.10;99.90
51765;DHT22;37835;53.256;6.456;2022-07-29T15:29:51;26.10;99.90
51765;DHT22;37835;53.256;6.456;2022-07-29T15:32:17;26.00;99.90
51765;DHT22;37835;53.256;6.456;2022-07-29T15:34:42;25.90;99.90
51765;DHT22;37835;53.256;6.456;2022-07-29T15:37:08;25.80;99.90
51765;DHT22;37835;53.256;6.456;2022-07-29T15:39:35;25.80;99.90
51765;DHT22;37835;53.256;6.456;2022-07-29T15:42:00;25.70;99.90
51765;DHT22;37835;53.256;6.456;2022-07-29T15:44:27;25.60;99.90
51765;DHT22;37835;53.256;6.456;2022-07-29T15:46:53;25.50;99.90
51765;DHT22;37835;53.256;6.456;2022-07-29T15:49:35;25.50;99.90
51765;DHT22;37835;53.256;6.456;2022-07-29T15:52:03;25.40;99.90
51765;DHT22;37835;53.256;6.456;2022-07-29T15:54:32;25.40;99.90
51765;DHT22;37835;53.256;6.456;2022-07-29T15:56:58;25.40;99.90
51765;DHT22;37835;53.256;6.456;2022-07-29T15:59:24;25.30;99.90
51765;DHT22;37835;53.256;6.456;2022-07-29T16:01:50;25.30;99.90
51765;DHT22;37835;53.256;6.456;2022-07-29T16:04:16;25.30;99.90
51765;DHT22;37835;53.256;6.456;2022-07-29T16:06:43;25.40;99.90
51765;DHT22;37835;53.256;6.456;2022-07-29T16:09:09;25.10;99.90
51765;DHT22;37835;53.256;6.456;2022-07-29T16:11:34;25.40;99.90
51765;DHT22;37835;53.256;6.456;2022-07-29T16:14:00;25.30;99.90
51765;DHT22;37835;53.256;6.456;2022-07-29T16:16:26;25.30;99.90
51765;DHT22;37835;53.256;6.456;2022-07-29T16:18:52;25.30;99.90
51765;DHT22;37835;53.256;6.456;2022-07-29T16:21:17;25.30;99.90
51765;DHT22;37835;53.256;6.456;2022-07-29T16:23:43;25.30;99.90
51765;DHT22;37835;53.256;6.456;2022-07-29T16:26:09;25.50;99.90
51765;DHT22;37835;53.256;6.456;2022-07-29T16:28:35;25.60;99.90
51765;DHT22;37835;53.256;6.456;2022-07-29T16:31:00;25.70;99.90
51765;DHT22;37835;53.256;6.456;2022-07-29T16:33:26;25.90;99.90
51765;DHT22;37835;53.256;6.456;2022-07-29T16:35:52;26.10;99.90
51765;DHT22;37835;53.256;6.456;2022-07-29T16:38:18;26.30;99.90
51765;DHT22;37835;53.256;6.456;2022-07-29T16:40:44;26.40;99.90
51765;DHT22;37835;53.256;6.456;2022-07-29T16:43:09;26.60;99.90